Time;durP1;ratioP1;P1;durP2;ratioP2;P2;SDS_P1;SDS_P2;PMS_P1;PMS_P2;Temp;Humidity;BMP_temperature;BMP_pressure;BME280_temperature;BME280_humidity;BME280_pressure;Samples;Min_cycle;Max_cycle;Signal;HPM_P1;HPM_P2
2021/09/10 00:02:16;;;;;;;;;;;;;;;14.52;100.00;100511.13;5094152;28;20306;-66
2021/09/10 00:04:42;;;;;;;;;;;;;;;14.50;100.00;100507.72;5094355;28;20034;-67
2021/09/10 00:07:08;;;;;;;;;;;;;;;14.51;100.00;100517.59;5094253;28;19955;-67
2021/09/10 00:09:36;;;;;;;;;;;;;;;14.59;100.00;100508.63;5093822;28;20018;-67
2021/09/10 00:12:02;;;;;;;;;;;;;;;14.58;100.00;100510.50;5094410;28;20027;-66
2021/09/10 00:14:29;;;;;;;;;;;;;;;14.66;100.00;100509.78;5093526;28;20372;-67
2021/09/10 00:16:55;;;;;;;;;;;;;;;14.62;100.00;100505.56;5093803;28;20035;-66
2021/09/10 00:19:21;;;;;;;;;;;;;;;14.64;100.00;100503.59;5094044;28;19997;-66
2021/09/10 00:21:48;;;;;;;;;;;;;;;14.62;100.00;100508.31;5093630;28;20455;-67
2021/09/10 00:24:14;;;;;;;;;;;;;;;14.57;100.00;100495.97;5093856;28;19924;-66
2021/09/10 00:26:42;;;;;;;;;;;;;;;14.57;100.00;100506.06;5093238;28;19928;-67
2021/09/10 00:29:08;;;;;;;;;;;;;;;14.55;100.00;100500.75;5076012;28;20353;-66
2021/09/10 00:31:34;;;;;;;;;;;;;;;14.59;100.00;100501.31;5093463;28;19924;-66
2021/09/10 00:34:01;;;;;;;;;;;;;;;14.63;100.00;100510.94;5075700;28;19958;-66
2021/09/10 00:36:27;;;;;;;;;;;;;;;14.70;100.00;100498.34;5092722;28;20018;-66
2021/09/10 00:38:53;;;;;;;;;;;;;;;14.83;100.00;100494.34;5093201;28;20031;-67
2021/09/10 00:41:19;;;;;;;;;;;;;;;14.87;100.00;100495.75;5075932;28;19964;-67
2021/09/10 00:43:47;;;;;;;;;;;;;;;14.90;100.00;100488.09;5093293;28;19968;-66
2021/09/10 00:46:14;;;;;;;;;;;;;;;14.90;100.00;100495.47;5093593;28;19967;-66
2021/09/10 00:48:40;;;;;;;;;;;;;;;14.85;100.00;100493.19;5093382;28;20315;-66
2021/09/10 00:51:06;;;;;;;;;;;;;;;14.90;100.00;100500.91;5093111;28;19930;-67
2021/09/10 00:53:33;;;;;;;;;;;;;;;14.96;100.00;100491.22;5093413;28;20010;-67
2021/09/10 00:55:59;;;;;;;;;;;;;;;15.00;100.00;100492.63;5093366;28;19928;-67
2021/09/10 00:58:25;;;;;;;;;;;;;;;15.07;100.00;100491.81;5093180;28;20478;-66
2021/09/10 01:00:53;;;;;;;;;;;;;;;15.12;100.00;100491.34;5092701;28;19959;-67
2021/09/10 01:03:20;;;;;;;;;;;;;;;15.25;100.00;100490.06;5093266;28;19930;-67
2021/09/10 01:05:46;;;;;;;;;;;;;;;15.30;100.00;100487.69;5075103;28;20288;-66
2021/09/10 01:08:12;;;;;;;;;;;;;;;15.32;100.00;100482.94;5092598;28;20022;-66
2021/09/10 01:10:39;;;;;;;;;;;;;;;15.34;100.00;100483.59;5093047;28;19931;-67
2021/09/10 01:13:06;;;;;;;;;;;;;;;15.39;100.00;100479.38;5092832;28;19927;-68
2021/09/10 01:15:32;;;;;;;;;;;;;;;15.36;100.00;100490.63;5092998;28;20366;-67
2021/09/10 01:18:00;;;;;;;;;;;;;;;15.28;100.00;100490.59;5092583;28;19955;-66
2021/09/10 01:20:26;;;;;;;;;;;;;;;15.30;100.00;100488.56;5092726;28;19985;-67
2021/09/10 01:22:52;;;;;;;;;;;;;;;15.29;100.00;100491.47;5092861;28;20030;-66
2021/09/10 01:25:20;;;;;;;;;;;;;;;15.18;100.00;100487.97;5092460;28;19955;-66
2021/09/10 01:27:48;;;;;;;;;;;;;;;15.07;100.00;100488.22;5092274;28;20314;-67
2021/09/10 01:30:16;;;;;;;;;;;;;;;14.97;100.00;100488.31;5092685;28;19993;-66
2021/09/10 01:32:43;;;;;;;;;;;;;;;14.89;100.00;100491.00;5074430;28;19932;-66
2021/09/10 01:35:09;;;;;;;;;;;;;;;14.81;100.00;100493.69;5092800;28;19963;-66
2021/09/10 01:37:36;;;;;;;;;;;;;;;14.72;100.00;100499.06;5092050;28;19962;-66
2021/09/10 01:40:02;;;;;;;;;;;;;;;14.67;100.00;100495.94;5092702;28;20276;-66
2021/09/10 01:42:30;;;;;;;;;;;;;;;14.67;100.00;100493.22;5092393;28;19971;-67
2021/09/10 01:44:56;;;;;;;;;;;;;;;14.71;100.00;100491.00;5092272;28;19935;-67
2021/09/10 01:47:22;;;;;;;;;;;;;;;14.64;100.00;100492.66;5073660;28;20438;-66
2021/09/10 01:49:49;;;;;;;;;;;;;;;14.56;100.00;100497.03;5092025;28;19924;-67
2021/09/10 01:52:15;;;;;;;;;;;;;;;14.50;100.00;100508.56;5092353;28;19925;-66
2021/09/10 01:54:42;;;;;;;;;;;;;;;14.45;100.00;100504.59;5091724;28;19970;-66
2021/09/10 01:57:08;;;;;;;;;;;;;;;14.39;100.00;100506.03;5092091;28;20009;-66
2021/09/10 01:59:36;;;;;;;;;;;;;;;14.40;100.00;100505.03;5091634;28;19962;-67
2021/09/10 02:02:03;;;;;;;;;;;;;;;14.43;100.00;100510.19;5092115;28;19924;-66
2021/09/10 02:04:29;;;;;;;;;;;;;;;14.38;100.00;100504.34;5091966;28;19924;-67
2021/09/10 02:06:55;;;;;;;;;;;;;;;14.35;100.00;100515.56;5091278;28;20444;-68
2021/09/10 02:09:22;;;;;;;;;;;;;;;14.29;100.00;100514.31;5091960;28;19974;-66
2021/09/10 02:11:48;;;;;;;;;;;;;;;14.30;100.00;100510.56;5091581;28;20026;-66
2021/09/10 02:14:14;;;;;;;;;;;;;;;14.28;100.00;100506.28;5091399;28;20026;-66
2021/09/10 02:16:42;;;;;;;;;;;;;;;14.28;100.00;100506.28;5091500;28;20371;-66
2021/09/10 02:19:09;;;;;;;;;;;;;;;14.28;100.00;100509.00;5091606;28;19924;-66
2021/09/10 02:21:36;;;;;;;;;;;;;;;14.25;100.00;100498.41;5073514;28;19936;-66
2021/09/10 02:24:02;;;;;;;;;;;;;;;14.20;100.00;100502.47;5091481;28;20269;-66
2021/09/10 02:26:28;;;;;;;;;;;;;;;14.13;100.00;100498.59;5091644;28;19955;-66
2021/09/10 02:28:54;;;;;;;;;;;;;;;14.14;100.00;100503.06;5091251;28;20415;-66
2021/09/10 02:31:21;;;;;;;;;;;;;;;14.12;100.00;100502.34;5091764;28;20027;-66
2021/09/10 02:33:48;;;;;;;;;;;;;;;14.07;100.00;100496.50;5073320;28;20314;-67
2021/09/10 02:36:15;;;;;;;;;;;;;;;14.00;100.00;100501.72;5091134;28;19927;-66
2021/09/10 02:38:41;;;;;;;;;;;;;;;13.94;100.00;100504.19;5090925;28;20026;-66
2021/09/10 02:41:08;;;;;;;;;;;;;;;13.86;100.00;100505.78;5091317;28;19927;-67
2021/09/10 02:43:34;;;;;;;;;;;;;;;13.81;100.00;100504.53;5091320;28;19959;-66
2021/09/10 02:46:00;;;;;;;;;;;;;;;13.78;100.00;100507.59;5091141;28;20015;-66
2021/09/10 02:48:26;;;;;;;;;;;;;;;13.71;100.00;100501.88;5090939;28;20019;-66
2021/09/10 02:50:54;;;;;;;;;;;;;;;13.68;100.00;100502.16;5073326;28;20324;-67
2021/09/10 02:53:20;;;;;;;;;;;;;;;13.63;100.00;100507.19;5090914;28;19924;-66
2021/09/10 02:55:47;;;;;;;;;;;;;;;13.60;100.00;100502.03;5090939;28;19931;-66
2021/09/10 02:58:15;;;;;;;;;;;;;;;13.55;100.00;100510.69;5090670;28;19924;-66
2021/09/10 03:00:41;;;;;;;;;;;;;;;13.50;100.00;100511.13;5090993;28;20295;-66
2021/09/10 03:03:07;;;;;;;;;;;;;;;13.49;100.00;100511.28;5091228;28;20011;-66
2021/09/10 03:05:34;;;;;;;;;;;;;;;13.50;100.00;100518.47;5090725;28;20027;-66
2021/09/10 03:08:01;;;;;;;;;;;;;;;13.55;100.00;100514.25;5090906;28;20019;-66
2021/09/10 03:10:28;;;;;;;;;;;;;;;13.59;100.00;100503.94;5090817;28;20065;-66
2021/09/10 03:12:54;;;;;;;;;;;;;;;13.77;100.00;100509.44;5090905;28;20023;-66
2021/09/10 03:15:20;;;;;;;;;;;;;;;13.89;100.00;100507.38;5090551;28;19967;-67
2021/09/10 03:17:47;;;;;;;;;;;;;;;13.92;100.00;100498.03;5090683;28;20395;-66
2021/09/10 03:20:13;;;;;;;;;;;;;;;13.92;100.00;100498.03;5091102;28;20047;-66
2021/09/10 03:22:40;;;;;;;;;;;;;;;13.94;100.00;100507.78;5090787;28;20031;-67
2021/09/10 03:25:08;;;;;;;;;;;;;;;14.04;100.00;100502.25;5090969;28;20377;-66
2021/09/10 03:27:35;;;;;;;;;;;;;;;14.07;100.00;100494.63;5090381;28;20303;-67
2021/09/10 03:30:02;;;;;;;;;;;;;;;14.16;100.00;100498.31;5090753;28;20363;-67
2021/09/10 03:32:28;;;;;;;;;;;;;;;14.26;100.00;100502.81;5091189;28;19924;-66
2021/09/10 03:34:55;;;;;;;;;;;;;;;14.32;100.00;100499.50;5072461;28;19932;-66
2021/09/10 03:37:21;;;;;;;;;;;;;;;14.38;100.00;100494.25;5090831;28;20027;-66
2021/09/10 03:39:47;;;;;;;;;;;;;;;14.41;100.00;100493.09;5090408;28;20035;-67
2021/09/10 03:42:15;;;;;;;;;;;;;;;14.35;100.00;100490.97;5091327;28;20415;-66
2021/09/10 03:44:41;;;;;;;;;;;;;;;14.26;100.00;100484.59;5090582;28;20356;-66
2021/09/10 03:47:07;;;;;;;;;;;;;;;14.21;100.00;100493.22;5090514;28;19924;-67
2021/09/10 03:49:34;;;;;;;;;;;;;;;14.20;100.00;100499.72;5090578;28;20363;-66
2021/09/10 03:52:01;;;;;;;;;;;;;;;14.22;100.00;100492.22;5090452;28;19977;-67
2021/09/10 03:54:27;;;;;;;;;;;;;;;14.21;100.00;100482.31;5090864;28;19968;-66
2021/09/10 03:56:53;;;;;;;;;;;;;;;14.23;100.00;100488.50;5089930;28;20026;-66
2021/09/10 03:59:21;;;;;;;;;;;;;;;14.20;100.00;100475.16;5090826;28;20360;-67
2021/09/10 04:01:47;;;;;;;;;;;;;;;14.20;100.00;100487.94;5090678;28;19986;-67
2021/09/10 04:04:15;;;;;;;;;;;;;;;14.13;100.00;100478.66;5072161;28;19924;-67
2021/09/10 04:06:42;;;;;;;;;;;;;;;14.06;100.00;100483.88;5090235;28;19946;-67
2021/09/10 04:09:09;;;;;;;;;;;;;;;13.97;100.00;100496.53;5072338;28;19931;-66
2021/09/10 04:11:37;;;;;;;;;;;;;;;13.88;100.00;100492.88;5092086;28;19979;-67
2021/09/10 04:14:04;;;;;;;;;;;;;;;13.85;100.00;100512.25;5093942;28;19928;-66
2021/09/10 04:16:33;;;;;;;;;;;;;;;13.84;100.00;100501.50;5093995;28;19959;-67
2021/09/10 04:18:59;;;;;;;;;;;;;;;13.76;100.00;100515.88;5093866;28;19967;-66
2021/09/10 04:21:25;;;;;;;;;;;;;;;13.71;100.00;100513.63;5093639;28;20007;-66
2021/09/10 04:23:52;;;;;;;;;;;;;;;13.76;100.00;100518.63;5093874;28;20023;-67
2021/09/10 04:26:18;;;;;;;;;;;;;;;13.69;100.00;100521.09;5093633;28;20018;-67
2021/09/10 04:28:46;;;;;;;;;;;;;;;13.68;100.00;100523.97;5093524;28;19982;-66
2021/09/10 04:31:13;;;;;;;;;;;;;;;13.66;100.00;100526.84;5093867;28;20243;-67
2021/09/10 04:33:40;;;;;;;;;;;;;;;13.69;100.00;100526.53;5075084;28;20294;-67
2021/09/10 04:36:07;;;;;;;;;;;;;;;13.80;100.00;100535.56;5093672;28;19924;-66
2021/09/10 04:38:33;;;;;;;;;;;;;;;13.83;100.00;100530.66;5093135;28;19928;-67
2021/09/10 04:40:59;;;;;;;;;;;;;;;13.80;100.00;100528.25;5093287;28;20370;-66
2021/09/10 04:43:26;;;;;;;;;;;;;;;13.79;100.00;100529.25;5093306;28;20015;-66
2021/09/10 04:45:52;;;;;;;;;;;;;;;13.82;100.00;100528.94;5093236;28;19949;-67
2021/09/10 04:48:18;;;;;;;;;;;;;;;13.86;100.00;100526.78;5093319;28;19946;-67
2021/09/10 04:50:46;;;;;;;;;;;;;;;13.89;100.00;100532.78;5093100;28;19932;-66
2021/09/10 04:53:12;;;;;;;;;;;;;;;13.90;100.00;100536.38;5093612;28;19958;-67
2021/09/10 04:55:38;;;;;;;;;;;;;;;13.92;100.00;100536.22;5092793;28;20030;-66
2021/09/10 04:58:05;;;;;;;;;;;;;;;13.95;100.00;100544.09;5092841;28;19928;-66
2021/09/10 05:00:31;;;;;;;;;;;;;;;14.03;100.00;100542.34;5093287;28;20347;-67
2021/09/10 05:02:57;;;;;;;;;;;;;;;14.08;100.00;100544.59;5092909;28;19960;-66
2021/09/10 05:05:23;;;;;;;;;;;;;;;14.13;100.00;100536.81;5093076;28;19931;-66
2021/09/10 05:07:51;;;;;;;;;;;;;;;14.20;100.00;100537.94;5092333;28;20334;-66
2021/09/10 05:10:17;;;;;;;;;;;;;;;14.27;100.00;100550.97;5093089;28;20014;-66
2021/09/10 05:12:44;;;;;;;;;;;;;;;14.36;100.00;100540.00;5092848;28;20260;-66
2021/09/10 05:15:10;;;;;;;;;;;;;;;14.47;100.00;100547.09;5092172;28;20018;-66
2021/09/10 05:17:36;;;;;;;;;;;;;;;14.56;100.00;100550.75;5092537;28;20403;-66
2021/09/10 05:20:04;;;;;;;;;;;;;;;14.70;100.00;100550.25;5092317;28;20035;-66
2021/09/10 05:22:30;;;;;;;;;;;;;;;14.89;100.00;100553.84;5092351;28;19924;-66
2021/09/10 05:24:58;;;;;;;;;;;;;;;15.17;100.00;100549.13;5092215;28;19931;-66
2021/09/10 05:27:24;;;;;;;;;;;;;;;15.53;100.00;100546.28;5074392;28;20000;-66
2021/09/10 05:29:50;;;;;;;;;;;;;;;15.89;100.00;100537.97;5092447;28;19924;-66
2021/09/10 05:32:16;;;;;;;;;;;;;;;16.23;100.00;100544.44;5092268;28;19924;-66
2021/09/10 05:34:43;;;;;;;;;;;;;;;16.54;100.00;100530.13;5092022;28;20027;-66
2021/09/10 05:37:09;;;;;;;;;;;;;;;16.87;100.00;100541.13;5091951;28;20018;-67
2021/09/10 05:39:35;;;;;;;;;;;;;;;17.16;100.00;100526.94;5092647;28;20039;-66
2021/09/10 05:42:03;;;;;;;;;;;;;;;17.47;100.00;100534.44;5092105;28;20014;-66
2021/09/10 05:44:29;;;;;;;;;;;;;;;17.74;100.00;100522.22;5092187;28;19974;-67
2021/09/10 05:46:55;;;;;;;;;;;;;;;18.02;100.00;100526.41;5091928;28;20438;-66
2021/09/10 05:49:22;;;;;;;;;;;;;;;18.22;100.00;100524.91;5091851;28;20003;-66
2021/09/10 05:51:48;;;;;;;;;;;;;;;18.36;100.00;100520.56;5091976;28;19931;-66
2021/09/10 05:54:14;;;;;;;;;;;;;;;18.20;100.00;100524.25;5091729;28;20015;-66
2021/09/10 05:56:40;;;;;;;;;;;;;;;17.95;100.00;100526.25;5092020;28;20015;-66
2021/09/10 05:59:08;;;;;;;;;;;;;;;18.08;100.00;100533.94;5091853;28;20035;-66
2021/09/10 06:01:34;;;;;;;;;;;;;;;18.40;100.00;100526.56;5091504;28;20030;-67
2021/09/10 06:04:01;;;;;;;;;;;;;;;18.67;100.00;100525.16;5091959;28;19959;-67
2021/09/10 06:06:27;;;;;;;;;;;;;;;18.95;100.00;100529.28;5091669;28;19967;-66
2021/09/10 06:08:54;;;;;;;;;;;;;;;19.15;100.00;100530.50;5091306;28;20236;-66
2021/09/10 06:11:20;;;;;;;;;;;;;;;19.32;100.00;100528.44;5091636;28;19959;-66
2021/09/10 06:13:46;;;;;;;;;;;;;;;19.62;100.00;100530.38;5073629;28;20479;-66
2021/09/10 06:16:14;;;;;;;;;;;;;;;19.97;100.00;100533.44;5091823;28;19977;-67
2021/09/10 06:18:40;;;;;;;;;;;;;;;20.24;100.00;100541.03;5091061;28;20015;-67
2021/09/10 06:21:06;;;;;;;;;;;;;;;20.51;100.00;100552.38;5091393;28;19928;-67
2021/09/10 06:23:33;;;;;;;;;;;;;;;20.65;100.00;100552.50;5091307;28;19924;-67
2021/09/10 06:25:59;;;;;;;;;;;;;;;20.74;100.00;100551.38;5091224;28;19928;-67
2021/09/10 06:28:25;;;;;;;;;;;;;;;20.81;100.00;100555.03;5091241;28;20026;-67
2021/09/10 06:30:51;;;;;;;;;;;;;;;21.16;100.00;100549.63;5091060;28;19936;-66
2021/09/10 06:33:19;;;;;;;;;;;;;;;21.33;100.00;100543.84;5090874;28;19960;-66
2021/09/10 06:35:45;;;;;;;;;;;;;;;21.68;100.00;100543.91;5090585;28;20062;-66
2021/09/10 06:38:12;;;;;;;;;;;;;;;22.00;100.00;100552.59;5091257;28;19950;-67
2021/09/10 06:40:38;;;;;;;;;;;;;;;22.07;100.00;100557.13;5091187;28;19971;-67
2021/09/10 06:43:04;;;;;;;;;;;;;;;22.14;100.00;100551.63;5091119;28;19932;-66
2021/09/10 06:45:30;;;;;;;;;;;;;;;21.99;100.00;100551.72;5091263;28;20023;-67
2021/09/10 06:47:57;;;;;;;;;;;;;;;22.10;100.00;100560.50;5090696;28;20454;-67
2021/09/10 06:50:24;;;;;;;;;;;;;;;22.39;100.00;100556.63;5091431;28;19930;-67
2021/09/10 06:52:51;;;;;;;;;;;;;;;22.71;100.00;100559.72;5090851;28;19971;-67
2021/09/10 06:55:17;;;;;;;;;;;;;;;22.79;100.00;100559.50;5091122;28;20018;-67
2021/09/10 06:57:43;;;;;;;;;;;;;;;23.12;100.00;100555.13;5090682;28;19924;-67
2021/09/10 07:00:10;;;;;;;;;;;;;;;23.08;100.00;100555.50;5090970;28;20112;-66
2021/09/10 07:02:36;;;;;;;;;;;;;;;23.12;100.00;100558.72;5090885;28;19928;-67
2021/09/10 07:05:03;;;;;;;;;;;;;;;23.61;100.00;100555.75;5090906;28;20027;-66
2021/09/10 07:07:31;;;;;;;;;;;;;;;23.88;100.00;100568.50;5091018;28;20383;-66
2021/09/10 07:09:57;;;;;;;;;;;;;;;24.11;100.00;100561.66;5090807;28;19924;-67
2021/09/10 07:12:24;;;;;;;;;;;;;;;24.46;100.00;100564.06;5091053;28;19928;-66
2021/09/10 07:14:50;;;;;;;;;;;;;;;24.91;100.00;100568.75;5091119;28;20014;-66
2021/09/10 07:17:16;;;;;;;;;;;;;;;25.02;100.00;100578.28;5090546;28;20022;-67
2021/09/10 07:19:43;;;;;;;;;;;;;;;25.07;100.00;100575.69;5090888;28;20384;-67
2021/09/10 07:22:09;;;;;;;;;;;;;;;25.36;100.00;100573.34;5072314;28;19946;-66
2021/09/10 07:24:36;;;;;;;;;;;;;;;25.65;100.00;100570.97;5090683;28;20030;-67
2021/09/10 07:27:03;;;;;;;;;;;;;;;25.85;100.00;100568.00;5090680;28;19974;-67
2021/09/10 07:29:29;;;;;;;;;;;;;;;25.58;100.00;100576.59;5090787;28;19928;-67
2021/09/10 07:31:56;;;;;;;;;;;;;;;25.63;100.00;100579.53;5090775;28;20027;-67
2021/09/10 07:34:22;;;;;;;;;;;;;;;25.99;100.00;100589.03;5090292;28;19947;-67
2021/09/10 07:36:49;;;;;;;;;;;;;;;26.29;100.00;100585.50;5090562;28;19975;-67
2021/09/10 07:39:16;;;;;;;;;;;;;;;26.42;100.00;100584.50;5090361;28;19946;-67
2021/09/10 07:41:44;;;;;;;;;;;;;;;26.89;100.00;100581.94;5090763;28;19931;-67
2021/09/10 07:44:13;;;;;;;;;;;;;;;26.99;100.00;100588.88;5090971;28;20030;-67
2021/09/10 07:46:40;;;;;;;;;;;;;;;26.88;100.00;100584.97;5093887;28;20011;-67
2021/09/10 07:49:06;;;;;;;;;;;;;;;27.00;100.00;100587.78;5094750;28;19977;-67
2021/09/10 07:51:32;;;;;;;;;;;;;;;27.04;100.00;100589.00;5094154;28;19978;-67
2021/09/10 07:53:58;;;;;;;;;;;;;;;26.96;100.00;100600.50;5094305;28;20298;-67
2021/09/10 07:56:25;;;;;;;;;;;;;;;26.52;100.00;100598.72;5094272;28;19928;-67
2021/09/10 07:58:52;;;;;;;;;;;;;;;26.76;100.00;100596.03;5093957;28;20333;-67
2021/09/10 08:01:19;;;;;;;;;;;;;;;26.82;100.00;100589.53;5094198;28;19930;-67
2021/09/10 08:03:45;;;;;;;;;;;;;;;27.03;100.00;100596.53;5093761;28;19951;-67
2021/09/10 08:06:11;;;;;;;;;;;;;;;27.33;100.00;100605.94;5094322;28;19968;-67
2021/09/10 08:08:38;;;;;;;;;;;;;;;26.80;100.00;100597.28;5093824;28;20456;-66
2021/09/10 08:11:04;;;;;;;;;;;;;;;26.76;100.00;100601.63;5094316;28;19924;-67
2021/09/10 08:13:31;;;;;;;;;;;;;;;26.47;100.00;100603.25;5093899;28;20300;-67
2021/09/10 08:15:58;;;;;;;;;;;;;;;26.36;100.00;100610.44;5093569;28;19981;-67
2021/09/10 08:18:25;;;;;;;;;;;;;;;26.53;100.00;100607.88;5093939;28;19924;-67
2021/09/10 08:20:52;;;;;;;;;;;;;;;26.26;100.00;100611.00;5093625;28;19951;-68
2021/09/10 08:23:18;;;;;;;;;;;;;;;26.49;100.00;100607.50;5093587;28;19950;-74
2021/09/10 08:25:44;;;;;;;;;;;;;;;26.88;100.00;100608.09;5093412;28;19960;-74
2021/09/10 08:28:11;;;;;;;;;;;;;;;27.25;100.00;100611.84;5093366;28;20304;-74
2021/09/10 08:30:37;;;;;;;;;;;;;;;27.53;100.00;100614.81;5093469;28;19928;-74
2021/09/10 08:33:09;;;;;;;;;;;;;;;28.03;100.00;100613.56;5093129;28;20338;-74
2021/09/10 08:35:35;;;;;;;;;;;;;;;28.00;100.00;100599.22;5093622;28;20038;-74
2021/09/10 08:38:03;;;;;;;;;;;;;;;28.03;100.00;100607.09;5092852;28;20023;-72
2021/09/10 08:40:29;;;;;;;;;;;;;;;27.94;100.00;100603.81;5093755;28;19924;-72
2021/09/10 08:42:55;;;;;;;;;;;;;;;28.05;100.00;100600.19;5093776;28;19978;-72
2021/09/10 08:45:25;;;;;;;;;;;;;;;28.00;100.00;100602.00;5093031;28;19970;-72
2021/09/10 08:47:52;;;;;;;;;;;;;;;28.44;100.00;100601.59;5093292;28;20035;-72
2021/09/10 08:50:20;;;;;;;;;;;;;;;28.57;100.00;100604.09;5093284;28;20010;-72
2021/09/10 08:52:46;;;;;;;;;;;;;;;28.36;100.00;100598.06;5093130;28;19931;-72
2021/09/10 08:55:15;;;;;;;;;;;;;;;28.35;100.00;100598.31;5093135;28;19974;-72
2021/09/10 08:57:46;;;;;;;;;;;;;;;28.92;100.00;100602.31;5092259;28;19924;-72
2021/09/10 09:00:13;;;;;;;;;;;;;;;28.72;100.00;100612.81;5093416;28;19967;-72
2021/09/10 09:02:39;;;;;;;;;;;;;;;28.51;100.00;100605.09;5092752;28;20015;-72
2021/09/10 09:05:06;;;;;;;;;;;;;;;28.51;100.00;100603.13;5075133;28;20018;-72
2021/09/10 09:07:34;;;;;;;;;;;;;;;28.92;100.00;100605.94;5092637;28;20375;-67
2021/09/10 09:10:01;;;;;;;;;;;;;;;29.06;100.00;100614.84;5092742;28;19963;-67
2021/09/10 09:12:29;;;;;;;;;;;;;;;28.86;100.00;100610.59;5092937;28;20456;-67
2021/09/10 09:14:56;;;;;;;;;;;;;;;29.36;100.00;100608.16;5074563;28;19935;-67
2021/09/10 09:17:25;;;;;;;;;;;;;;;29.52;100.00;100617.66;5092891;28;19924;-67
2021/09/10 09:20:09;;;;;;;;;;;;;;;29.59;100.00;100614.69;5092767;28;20018;-67
2021/09/10 09:22:51;;;;;;;;;;;;;;;29.38;100.00;100615.19;5093368;28;19966;-67
2021/09/10 09:25:17;;;;;;;;;;;;;;;29.63;100.00;100613.09;5092458;28;20080;-67
2021/09/10 09:27:43;;;;;;;;;;;;;;;29.63;100.00;100618.66;5092621;28;20022;-67
2021/09/10 09:30:10;;;;;;;;;;;;;;;30.16;100.00;100608.88;5092290;28;19994;-67
2021/09/10 09:32:46;;;;;;;;;;;;;;;30.13;100.00;100603.81;5092305;28;19963;-68
2021/09/10 09:35:13;;;;;;;;;;;;;;;30.18;100.00;100619.81;5092587;28;20006;-68
2021/09/10 09:37:39;;;;;;;;;;;;;;;30.04;100.00;100611.78;5091955;28;20006;-68
2021/09/10 09:40:09;;;;;;;;;;;;;;;30.29;100.00;100618.00;5092744;28;20023;-68
2021/09/10 09:42:36;;;;;;;;;;;;;;;30.73;100.00;100618.00;5092182;28;20019;-68
2021/09/10 09:45:09;;;;;;;;;;;;;;;30.47;100.00;100614.06;5092345;28;20369;-68
2021/09/10 09:47:36;;;;;;;;;;;;;;;30.62;98.79;100613.41;5091722;28;19925;-68
2021/09/10 09:50:06;;;;;;;;;;;;;;;30.23;98.96;100619.88;5092025;28;19970;-68
2021/09/10 09:52:33;;;;;;;;;;;;;;;30.64;100.00;100617.66;5092807;28;20028;-68
2021/09/10 09:55:00;;;;;;;;;;;;;;;30.27;99.84;100617.41;5091825;28;20027;-69
2021/09/10 09:57:29;;;;;;;;;;;;;;;29.95;100.00;100620.88;5091782;28;19967;-68
2021/09/10 09:59:56;;;;;;;;;;;;;;;29.51;100.00;100630.78;5073760;28;20366;-68
2021/09/10 10:02:23;;;;;;;;;;;;;;;29.84;100.00;100629.06;5092199;28;19924;-68
2021/09/10 10:04:49;;;;;;;;;;;;;;;30.09;100.00;100626.94;5091810;28;19928;-68
2021/09/10 10:07:16;;;;;;;;;;;;;;;30.03;100.00;100634.44;5091684;28;19989;-68
2021/09/10 10:09:43;;;;;;;;;;;;;;;29.97;100.00;100629.84;5092094;28;20435;-68
2021/09/10 10:12:10;;;;;;;;;;;;;;;29.75;100.00;100632.56;5091905;28;19924;-68
2021/09/10 10:14:40;;;;;;;;;;;;;;;29.85;100.00;100633.56;5091749;28;20041;-68
2021/09/10 10:17:06;;;;;;;;;;;;;;;30.21;100.00;100636.94;5091479;28;20016;-68
2021/09/10 10:19:43;;;;;;;;;;;;;;;30.91;100.00;100633.63;5091627;28;19924;-68
2021/09/10 10:22:12;;;;;;;;;;;;;;;31.31;90.52;100631.53;5091998;28;20024;-68
2021/09/10 10:24:39;;;;;;;;;;;;;;;31.46;88.02;100626.09;5090976;28;20019;-68
2021/09/10 10:27:29;;;;;;;;;;;;;;;31.42;87.92;100624.09;5091661;28;20031;-68
2021/09/10 10:29:56;;;;;;;;;;;;;;;31.27;87.55;100624.78;5091537;28;19928;-68
2021/09/10 10:32:30;;;;;;;;;;;;;;;30.62;89.94;100624.63;5091923;28;20533;-68
2021/09/10 10:35:16;;;;;;;;;;;;;;;30.42;91.01;100609.22;5091334;28;19928;-68
2021/09/10 10:37:43;;;;;;;;;;;;;;;30.31;95.94;100613.84;5091425;28;19977;-68
2021/09/10 10:40:24;;;;;;;;;;;;;;;30.64;91.98;100608.38;5090596;28;21563;-68
2021/09/10 10:42:52;;;;;;;;;;;;;;;30.64;91.84;100611.19;5091537;28;19959;-68
2021/09/10 10:45:40;;;;;;;;;;;;;;;30.93;95.70;100614.59;5091488;28;19946;-68
2021/09/10 10:48:29;;;;;;;;;;;;;;;30.61;90.98;100617.31;5090969;28;19928;-68
2021/09/10 10:50:56;;;;;;;;;;;;;;;30.95;90.35;100606.78;5091404;28;20200;-68
2021/09/10 10:53:22;;;;;;;;;;;;;;;31.08;85.36;100605.56;5091215;28;19924;-68
2021/09/10 10:55:48;;;;;;;;;;;;;;;31.20;89.66;100610.97;5091359;28;19959;-68
2021/09/10 10:58:21;;;;;;;;;;;;;;;31.08;86.43;100608.38;5072533;28;19924;-68
2021/09/10 11:00:50;;;;;;;;;;;;;;;31.21;88.57;100610.72;5091495;28;20443;-68
2021/09/10 11:03:43;;;;;;;;;;;;;;;30.62;88.94;100605.00;5091441;28;20487;-69
2021/09/10 11:06:27;;;;;;;;;;;;;;;30.42;91.78;100606.41;5054930;28;20379;-68
2021/09/10 11:08:53;;;;;;;;;;;;;;;30.66;91.86;100609.81;5090947;28;19928;-68
2021/09/10 11:11:20;;;;;;;;;;;;;;;30.67;94.55;100605.06;5091199;28;20026;-68
2021/09/10 11:13:46;;;;;;;;;;;;;;;30.57;90.15;100604.94;5091098;28;19974;-68
2021/09/10 11:16:27;;;;;;;;;;;;;;;30.52;93.47;100602.91;5091058;28;20383;-68
2021/09/10 11:18:53;;;;;;;;;;;;;;;30.87;91.46;100607.25;5090873;28;19971;-68
2021/09/10 11:21:26;;;;;;;;;;;;;;;30.89;87.93;100605.03;5094087;28;20372;-68
2021/09/10 11:23:52;;;;;;;;;;;;;;;30.58;90.38;100598.25;5095319;28;19924;-68
2021/09/10 11:26:18;;;;;;;;;;;;;;;30.43;93.54;100602.50;5094983;28;19924;-68
2021/09/10 11:28:45;;;;;;;;;;;;;;;30.15;93.95;100607.19;5094849;28;19924;-68
2021/09/10 11:31:11;;;;;;;;;;;;;;;30.46;90.06;100592.78;5095314;28;19955;-66
2021/09/10 11:33:42;;;;;;;;;;;;;;;30.48;91.83;100591.41;5094752;28;20362;-66
2021/09/10 11:36:08;;;;;;;;;;;;;;;30.98;92.28;100594.22;5094959;28;19962;-66
2021/09/10 11:38:35;;;;;;;;;;;;;;;31.51;89.88;100595.28;5094835;28;19925;-66
2021/09/10 11:41:03;;;;;;;;;;;;;;;31.49;82.66;100594.69;5094938;28;19971;-66
2021/09/10 11:43:31;;;;;;;;;;;;;;;31.67;81.27;100595.44;5094820;28;19928;-66
2021/09/10 11:45:59;;;;;;;;;;;;;;;31.39;87.96;100591.81;5094628;28;20018;-66
2021/09/10 11:48:28;;;;;;;;;;;;;;;31.31;88.76;100592.28;5094383;28;20403;-66
2021/09/10 11:50:57;;;;;;;;;;;;;;;31.35;84.82;100585.91;5094529;28;20042;-66
2021/09/10 11:53:27;;;;;;;;;;;;;;;31.50;86.36;100582.38;5094837;28;20018;-66
2021/09/10 11:56:01;;;;;;;;;;;;;;;31.81;86.45;100581.78;5094518;28;20315;-66
2021/09/10 11:58:35;;;;;;;;;;;;;;;31.95;82.50;100579.34;5094359;28;19928;-66
2021/09/10 12:01:14;;;;;;;;;;;;;;;32.19;77.83;100577.81;5094391;28;19931;-68
2021/09/10 12:03:46;;;;;;;;;;;;;;;32.37;75.24;100578.47;5094369;28;20369;-68
2021/09/10 12:06:18;;;;;;;;;;;;;;;32.31;76.30;100577.59;5094613;28;20253;-68
2021/09/10 12:09:01;;;;;;;;;;;;;;;31.87;77.47;100575.09;5094233;28;19924;-68
2021/09/10 12:11:28;;;;;;;;;;;;;;;32.24;78.30;100576.16;5081626;28;19924;-68
2021/09/10 12:13:54;;;;;;;;;;;;;;;32.29;77.63;100577.03;5093966;28;19947;-68
2021/09/10 12:16:21;;;;;;;;;;;;;;;32.90;72.87;100569.09;5094024;28;19934;-68
2021/09/10 12:19:00;;;;;;;;;;;;;;;32.89;71.45;100559.81;5093744;28;19928;-68
2021/09/10 12:21:31;;;;;;;;;;;;;;;32.35;74.22;100555.41;5094007;28;20019;-68
2021/09/10 12:24:07;;;;;;;;;;;;;;;32.32;74.36;100556.81;5093670;28;19928;-68
2021/09/10 12:26:49;;;;;;;;;;;;;;;31.98;75.46;100561.97;5094040;28;19924;-68
2021/09/10 12:29:19;;;;;;;;;;;;;;;32.50;76.07;100558.28;5093999;28;19935;-68
2021/09/10 12:31:47;;;;;;;;;;;;;;;32.62;74.53;100565.63;5092441;28;20358;-68